FYKT/KMP METAR and TAF weather

Enter ICAO airport designator
Station Type Date Time Source
FYKT METAR 2018/04/26 10:00 UTC NOAA

FYKT 261000Z 00000KT CAVOK 19/M00 Q1022


Station Type Date Time Source
FYKT Decoded METAR 2018/04/26 10:00 UTC NOAA

Keetmanshoop, Namibia (FYKT) 26-32S 018-07E 1100M
Apr 26, 2018 - 06:00 AM EDT / 2018.04.26 1000 UTC
Wind: Calm:0
Visibility: greater than 7 mile(s):0
Temperature: 66 F (19 C)
Dew Point: 32 F (0 C)
Relative Humidity: 27%
Pressure (altimeter): 30.18 in. Hg (1022 hPa)
ob: FYKT 261000Z 00000KT CAVOK 19/M00 Q1022
cycle: 10

Station Type Date Time Source
FYKT TAF 2018/04/27 00:00 UTC NOAA

TAF FYKT 262200Z 2700/2800 15010KT CAVOK
BECMG 2706/2708 07004KT
BECMG 2710/2712 30008KT
BECMG 2718/2720 22010KT


Example: see airport list